Time;durP1;ratioP1;P1;durP2;ratioP2;P2;SDS_P1;SDS_P2;PMS_P1;PMS_P2;Temp;Humidity;BMP_temperature;BMP_pressure;BME280_temperature;BME280_humidity;BME280_pressure;Samples;Min_cycle;Max_cycle;Signal;HPM_P1;HPM_P2
2021/09/29 00:00:23;;;;;;;;;;;14.30;99.90;;;;;;1839788;78;20432;-74
2021/09/29 00:02:50;;;;;;;;;;;14.20;99.90;;;;;;1838599;78;20157;-74
2021/09/29 00:05:17;;;;;;;;;;;14.20;99.90;;;;;;1834420;78;20163;-74
2021/09/29 00:07:43;;;;;;;;;;;14.20;99.90;;;;;;1837728;77;20416;-74
2021/09/29 00:10:11;;;;;;;;;;;14.20;99.90;;;;;;1839584;78;20122;-73
2021/09/29 00:12:38;;;;;;;;;;;14.20;99.90;;;;;;1840212;78;20126;-74
2021/09/29 00:15:10;;;;;;;;;;;14.20;99.90;;;;;;1840176;78;20201;-74
2021/09/29 00:17:35;;;;;;;;;;;14.10;99.90;;;;;;1839534;77;20206;-73
2021/09/29 00:20:01;;;;;;;;;;;14.10;99.90;;;;;;1811350;78;20207;-73
2021/09/29 00:22:28;;;;;;;;;;;14.10;99.90;;;;;;1810862;78;20160;-73
2021/09/29 00:24:55;;;;;;;;;;;14.10;99.90;;;;;;1810022;79;20176;-73
2021/09/29 00:27:22;;;;;;;;;;;14.10;99.90;;;;;;1810202;78;20121;-73
2021/09/29 00:29:51;;;;;;;;;;;13.90;99.90;;;;;;1829428;78;20208;-73
2021/09/29 00:32:19;;;;;;;;;;;13.90;99.90;;;;;;1840243;78;20162;-72
2021/09/29 00:34:46;;;;;;;;;;;13.90;99.90;;;;;;1839964;78;20174;-72
2021/09/29 00:37:12;;;;;;;;;;;13.90;99.90;;;;;;1840178;77;20488;-72
2021/09/29 00:39:39;;;;;;;;;;;13.90;99.90;;;;;;1839923;78;20178;-72
2021/09/29 00:42:06;;;;;;;;;;;13.90;99.90;;;;;;1840227;78;20657;-73
2021/09/29 00:44:33;;;;;;;;;;;13.90;99.90;;;;;;1840231;78;20498;-74
2021/09/29 00:47:00;;;;;;;;;;;13.80;99.90;;;;;;1840561;77;20177;-73
2021/09/29 00:49:27;;;;;;;;;;;13.70;99.90;;;;;;1844219;77;20112;-73
2021/09/29 00:51:55;;;;;;;;;;;13.60;99.90;;;;;;1837240;78;20171;-74
2021/09/29 00:54:26;;;;;;;;;;;13.50;99.90;;;;;;1840170;78;20206;-74
2021/09/29 00:56:51;;;;;;;;;;;13.60;99.90;;;;;;1850628;75;20405;-73
2021/09/29 00:59:18;;;;;;;;;;;13.70;99.90;;;;;;1845870;76;20179;-73
2021/09/29 01:01:46;;;;;;;;;;;13.70;99.90;;;;;;1848512;77;20129;-74
2021/09/29 01:04:13;;;;;;;;;;;13.60;99.90;;;;;;1844959;77;20216;-73
2021/09/29 01:06:53;;;;;;;;;;;13.60;99.90;;;;;;1840165;78;20162;-74
2021/09/29 01:09:22;;;;;;;;;;;13.60;99.90;;;;;;1839824;78;20158;-73
2021/09/29 01:11:59;;;;;;;;;;;13.50;99.90;;;;;;1839759;78;20179;-72
2021/09/29 01:14:34;;;;;;;;;;;13.50;99.90;;;;;;1839365;78;20468;-72
2021/09/29 01:17:01;;;;;;;;;;;13.50;99.90;;;;;;1840022;77;20181;-74
2021/09/29 01:19:42;;;;;;;;;;;13.50;99.90;;;;;;1849724;76;20234;-73
2021/09/29 01:22:09;;;;;;;;;;;13.60;99.90;;;;;;1845892;76;20205;-73
2021/09/29 01:24:38;;;;;;;;;;;13.60;99.90;;;;;;1829096;78;20182;-73
2021/09/29 01:27:05;;;;;;;;;;;13.60;99.90;;;;;;1839856;78;20479;-73
2021/09/29 01:29:32;;;;;;;;;;;13.60;99.90;;;;;;1840291;78;20829;-72
2021/09/29 01:31:59;;;;;;;;;;;13.60;99.90;;;;;;1839939;78;20186;-72
2021/09/29 01:34:26;;;;;;;;;;;13.60;99.90;;;;;;1839817;78;20128;-72
2021/09/29 01:36:53;;;;;;;;;;;13.60;99.90;;;;;;1840151;78;20178;-74
2021/09/29 01:39:25;;;;;;;;;;;13.70;99.90;;;;;;1840120;78;20239;-74
2021/09/29 01:41:48;;;;;;;;;;;13.70;99.90;;;;;;1838607;78;20115;-72
2021/09/29 01:44:15;;;;;;;;;;;13.60;99.90;;;;;;1841151;78;20159;-72
2021/09/29 01:46:42;;;;;;;;;;;13.60;99.90;;;;;;1843563;78;20124;-72
2021/09/29 01:49:14;;;;;;;;;;;13.60;99.90;;;;;;1843977;76;20179;-73
2021/09/29 01:51:42;;;;;;;;;;;13.80;99.90;;;;;;1837759;78;20240;-73
2021/09/29 01:54:10;;;;;;;;;;;13.70;99.90;;;;;;1840715;78;20216;-73
2021/09/29 01:56:38;;;;;;;;;;;13.70;99.90;;;;;;1839690;76;20193;-72
2021/09/29 01:59:05;;;;;;;;;;;13.60;99.90;;;;;;1842235;76;20198;-73
2021/09/29 02:01:38;;;;;;;;;;;13.60;99.90;;;;;;1841862;78;20393;-73
2021/09/29 02:04:06;;;;;;;;;;;13.70;99.90;;;;;;1840282;78;20182;-72
2021/09/29 02:06:49;;;;;;;;;;;13.60;99.90;;;;;;1839855;78;20201;-72
2021/09/29 02:09:16;;;;;;;;;;;13.60;99.90;;;;;;1829524;76;20498;-74
2021/09/29 02:11:43;;;;;;;;;;;13.50;99.90;;;;;;1828161;76;20405;-75
2021/09/29 02:14:10;;;;;;;;;;;13.50;99.90;;;;;;1844661;77;20192;-73
2021/09/29 02:16:37;;;;;;;;;;;13.50;99.90;;;;;;1837911;78;20220;-75
2021/09/29 02:19:04;;;;;;;;;;;13.50;99.90;;;;;;1840155;76;20186;-74
2021/09/29 02:21:31;;;;;;;;;;;13.50;99.90;;;;;;1846777;76;20154;-74
2021/09/29 02:23:58;;;;;;;;;;;13.40;99.90;;;;;;1848704;77;20160;-74
2021/09/29 02:26:25;;;;;;;;;;;13.50;99.90;;;;;;1852112;76;20451;-74
2021/09/29 02:28:51;;;;;;;;;;;13.60;99.90;;;;;;1841896;76;20186;-74
2021/09/29 02:31:18;;;;;;;;;;;13.50;99.90;;;;;;1838779;77;20431;-74
2021/09/29 02:33:45;;;;;;;;;;;13.50;99.90;;;;;;1843550;78;20131;-74
2021/09/29 02:36:12;;;;;;;;;;;13.50;99.90;;;;;;1844445;78;20463;-74
2021/09/29 02:38:41;;;;;;;;;;;13.50;99.90;;;;;;1839833;78;20131;-74
2021/09/29 02:41:07;;;;;;;;;;;13.50;99.90;;;;;;1840017;78;20166;-74
2021/09/29 02:43:34;;;;;;;;;;;13.50;99.90;;;;;;1840294;78;20205;-74
2021/09/29 02:46:02;;;;;;;;;;;13.50;99.90;;;;;;1837067;78;20174;-72
2021/09/29 02:48:29;;;;;;;;;;;13.40;99.90;;;;;;1835564;77;20119;-74
2021/09/29 02:50:56;;;;;;;;;;;13.50;99.90;;;;;;1833561;78;20256;-74
2021/09/29 02:53:23;;;;;;;;;;;13.50;99.90;;;;;;1838416;78;20397;-74
2021/09/29 02:55:49;;;;;;;;;;;13.60;99.90;;;;;;1854242;76;20113;-75
2021/09/29 02:58:17;;;;;;;;;;;13.50;99.90;;;;;;1838358;78;20443;-74
2021/09/29 03:00:43;;;;;;;;;;;13.60;99.90;;;;;;1833137;78;20396;-74
2021/09/29 03:03:10;;;;;;;;;;;13.50;99.90;;;;;;1830337;78;20245;-74
2021/09/29 03:05:37;;;;;;;;;;;13.50;99.90;;;;;;1828372;78;20166;-74
2021/09/29 03:08:05;;;;;;;;;;;13.60;99.90;;;;;;1834652;77;20190;-74
2021/09/29 03:10:32;;;;;;;;;;;13.50;99.90;;;;;;1840234;78;20167;-74
2021/09/29 03:12:58;;;;;;;;;;;13.50;99.90;;;;;;1840159;78;20505;-74
2021/09/29 03:15:25;;;;;;;;;;;13.50;99.90;;;;;;1840294;78;20166;-74
2021/09/29 03:17:52;;;;;;;;;;;13.50;99.90;;;;;;1836625;77;20412;-74
2021/09/29 03:20:19;;;;;;;;;;;13.50;99.90;;;;;;1852312;75;20180;-74
2021/09/29 03:22:46;;;;;;;;;;;13.50;99.90;;;;;;1840170;78;20134;-74
2021/09/29 03:25:14;;;;;;;;;;;13.60;99.90;;;;;;1840204;78;20174;-74
2021/09/29 03:27:41;;;;;;;;;;;13.60;99.90;;;;;;1846998;76;20178;-74
2021/09/29 03:30:08;;;;;;;;;;;13.50;99.90;;;;;;1837408;78;20112;-74
2021/09/29 03:32:35;;;;;;;;;;;13.60;99.90;;;;;;1850086;77;20171;-75
2021/09/29 03:35:01;;;;;;;;;;;13.60;99.90;;;;;;1836389;78;20221;-75
2021/09/29 03:37:28;;;;;;;;;;;13.60;99.90;;;;;;1841608;76;20413;-75
2021/09/29 03:39:55;;;;;;;;;;;13.60;99.90;;;;;;1849651;76;20163;-75
2021/09/29 03:42:22;;;;;;;;;;;13.50;99.90;;;;;;1840382;78;20373;-75
2021/09/29 03:44:49;;;;;;;;;;;13.60;99.90;;;;;;1840124;78;20154;-75
2021/09/29 03:47:15;;;;;;;;;;;13.70;99.90;;;;;;1838487;76;20492;-75
2021/09/29 03:49:42;;;;;;;;;;;13.50;99.90;;;;;;1844350;76;20128;-75
2021/09/29 03:52:09;;;;;;;;;;;13.60;99.90;;;;;;1839242;78;20182;-75
2021/09/29 03:54:36;;;;;;;;;;;13.70;99.90;;;;;;1840061;78;20178;-74
2021/09/29 03:59:38;;;;;;;;;;;13.60;99.90;;;;;;1850881;76;20256;-72
2021/09/29 04:02:05;;;;;;;;;;;13.60;99.90;;;;;;1840194;78;20381;-73
2021/09/29 04:04:31;;;;;;;;;;;13.60;99.90;;;;;;1840140;78;20166;-73
2021/09/29 04:06:58;;;;;;;;;;;13.60;99.90;;;;;;1847370;77;20167;-73
2021/09/29 04:09:25;;;;;;;;;;;13.60;99.90;;;;;;1838470;78;20158;-73
2021/09/29 04:11:52;;;;;;;;;;;13.70;99.90;;;;;;1838395;78;20182;-73
2021/09/29 04:14:20;;;;;;;;;;;13.70;99.90;;;;;;1838570;78;20447;-72
2021/09/29 04:16:47;;;;;;;;;;;13.60;99.90;;;;;;1849584;77;20442;-72
2021/09/29 04:19:16;;;;;;;;;;;13.60;99.90;;;;;;1855435;77;20176;-72
2021/09/29 04:21:44;;;;;;;;;;;13.60;99.90;;;;;;1857827;77;20180;-72
2021/09/29 04:24:11;;;;;;;;;;;13.60;99.90;;;;;;1865567;77;20215;-72
2021/09/29 04:26:38;;;;;;;;;;;13.60;99.90;;;;;;1863047;77;20175;-72
2021/09/29 04:29:05;;;;;;;;;;;13.60;99.90;;;;;;1866796;75;20131;-72
2021/09/29 04:31:32;;;;;;;;;;;13.60;99.90;;;;;;1862460;77;20455;-72
2021/09/29 04:33:59;;;;;;;;;;;13.60;99.90;;;;;;1882251;75;20130;-73
2021/09/29 04:36:26;;;;;;;;;;;13.50;99.90;;;;;;1901648;75;20184;-73
2021/09/29 04:38:53;;;;;;;;;;;13.60;99.90;;;;;;1871007;77;20164;-73
2021/09/29 04:41:19;;;;;;;;;;;13.60;99.90;;;;;;1871399;77;20117;-73
2021/09/29 04:43:46;;;;;;;;;;;13.60;99.90;;;;;;1868730;77;20172;-73
2021/09/29 04:46:13;;;;;;;;;;;13.70;99.90;;;;;;1870159;77;20168;-72
2021/09/29 04:48:40;;;;;;;;;;;13.70;99.90;;;;;;1874683;75;20133;-71
2021/09/29 04:51:07;;;;;;;;;;;13.60;99.90;;;;;;1874744;76;20172;-72
2021/09/29 04:53:33;;;;;;;;;;;13.60;99.90;;;;;;1873804;76;20168;-72
2021/09/29 04:56:00;;;;;;;;;;;13.70;99.90;;;;;;1850249;75;20167;-72
2021/09/29 04:58:28;;;;;;;;;;;13.70;99.90;;;;;;1869064;76;20179;-71
2021/09/29 05:00:54;;;;;;;;;;;13.70;99.90;;;;;;1856611;76;20149;-71
2021/09/29 05:03:22;;;;;;;;;;;13.70;99.90;;;;;;1866566;76;20676;-72
2021/09/29 05:05:49;;;;;;;;;;;13.60;99.90;;;;;;1874086;76;20484;-72
2021/09/29 05:08:24;;;;;;;;;;;13.60;99.90;;;;;;1876163;75;20133;-71
2021/09/29 05:11:01;;;;;;;;;;;13.60;99.90;;;;;;1868229;75;20202;-72
2021/09/29 05:13:33;;;;;;;;;;;13.70;99.90;;;;;;1863976;75;20225;-72
2021/09/29 05:15:58;;;;;;;;;;;13.70;99.90;;;;;;1830357;78;20180;-72
2021/09/29 05:18:25;;;;;;;;;;;13.70;99.90;;;;;;1826081;78;20214;-72
2021/09/29 05:20:52;;;;;;;;;;;13.70;99.90;;;;;;1822384;76;20246;-76
2021/09/29 05:23:19;;;;;;;;;;;13.70;99.90;;;;;;1842097;77;20111;-73
2021/09/29 05:25:46;;;;;;;;;;;13.70;99.90;;;;;;1837854;76;20197;-73
2021/09/29 05:28:14;;;;;;;;;;;13.70;99.90;;;;;;1837463;77;20226;-72
2021/09/29 05:30:41;;;;;;;;;;;13.70;99.90;;;;;;1819543;78;20128;-72
2021/09/29 05:33:08;;;;;;;;;;;13.70;99.90;;;;;;1829926;76;20174;-72
2021/09/29 05:35:34;;;;;;;;;;;13.70;99.90;;;;;;1838527;76;20238;-72
2021/09/29 05:38:02;;;;;;;;;;;13.80;99.90;;;;;;1838563;77;20194;-72
2021/09/29 05:40:29;;;;;;;;;;;13.70;99.90;;;;;;1843772;78;20370;-72
2021/09/29 05:42:55;;;;;;;;;;;13.70;99.90;;;;;;1845484;77;20235;-72
2021/09/29 05:45:22;;;;;;;;;;;13.80;99.90;;;;;;1844674;78;20486;-72
2021/09/29 05:47:49;;;;;;;;;;;13.70;99.90;;;;;;1850918;77;20131;-72
2021/09/29 05:50:16;;;;;;;;;;;13.70;99.90;;;;;;1846888;77;20177;-71
2021/09/29 05:52:43;;;;;;;;;;;13.70;99.90;;;;;;1827870;78;20118;-71
2021/09/29 05:55:10;;;;;;;;;;;13.70;99.90;;;;;;1835598;76;20209;-71
2021/09/29 05:57:36;;;;;;;;;;;13.70;99.90;;;;;;1840678;76;20194;-72
2021/09/29 06:00:05;;;;;;;;;;;13.70;99.90;;;;;;1849595;77;20607;-73
2021/09/29 06:02:32;;;;;;;;;;;13.70;99.90;;;;;;1846382;78;20209;-75
2021/09/29 06:04:59;;;;;;;;;;;13.70;99.90;;;;;;1843117;77;20458;-72
2021/09/29 06:07:25;;;;;;;;;;;13.80;99.90;;;;;;1827825;77;20189;-72
2021/09/29 06:09:52;;;;;;;;;;;13.80;99.90;;;;;;1838056;76;20166;-72
2021/09/29 06:12:19;;;;;;;;;;;13.80;99.90;;;;;;1826435;77;20418;-72
2021/09/29 06:14:50;;;;;;;;;;;13.80;99.90;;;;;;1842034;77;20113;-73
2021/09/29 06:17:23;;;;;;;;;;;13.70;99.90;;;;;;1849413;77;20149;-72
2021/09/29 06:19:50;;;;;;;;;;;13.80;99.90;;;;;;1833705;76;20530;-72
2021/09/29 06:22:17;;;;;;;;;;;13.80;99.90;;;;;;1838533;78;20424;-72
2021/09/29 06:24:44;;;;;;;;;;;13.90;99.90;;;;;;1836239;76;20177;-73
2021/09/29 06:27:11;;;;;;;;;;;13.80;99.90;;;;;;1837967;77;20189;-73
2021/09/29 06:29:38;;;;;;;;;;;13.80;99.90;;;;;;1835875;78;20228;-73
2021/09/29 06:32:05;;;;;;;;;;;13.70;99.90;;;;;;1817408;77;20199;-73
2021/09/29 06:34:32;;;;;;;;;;;13.70;99.90;;;;;;1832738;77;21109;-73
2021/09/29 06:36:59;;;;;;;;;;;13.70;99.90;;;;;;1837195;76;20220;-73
2021/09/29 06:39:26;;;;;;;;;;;13.80;99.90;;;;;;1822047;77;20210;-74
2021/09/29 06:41:52;;;;;;;;;;;13.70;99.90;;;;;;1832621;76;20207;-73
2021/09/29 06:44:19;;;;;;;;;;;13.70;99.90;;;;;;1828492;76;20204;-73
2021/09/29 06:46:46;;;;;;;;;;;13.70;99.90;;;;;;1839240;77;20130;-73
2021/09/29 06:49:13;;;;;;;;;;;13.80;99.90;;;;;;1838555;76;20216;-73
2021/09/29 06:51:40;;;;;;;;;;;13.70;99.90;;;;;;1827465;77;20444;-73
2021/09/29 06:54:07;;;;;;;;;;;13.70;99.90;;;;;;1842003;77;20185;-73
2021/09/29 06:56:33;;;;;;;;;;;13.70;99.90;;;;;;1829259;78;20220;-74
2021/09/29 06:59:00;;;;;;;;;;;13.70;99.90;;;;;;1832847;77;20433;-72
2021/09/29 07:01:27;;;;;;;;;;;13.70;99.90;;;;;;1816490;78;20168;-72
2021/09/29 07:03:54;;;;;;;;;;;13.70;99.90;;;;;;1820768;79;20472;-72
2021/09/29 07:06:21;;;;;;;;;;;13.70;99.90;;;;;;1815483;78;20156;-72
2021/09/29 07:08:47;;;;;;;;;;;13.80;99.90;;;;;;1854439;77;20726;-72
2021/09/29 07:11:16;;;;;;;;;;;13.80;99.90;;;;;;1888302;76;20194;-72
2021/09/29 07:13:45;;;;;;;;;;;13.80;99.90;;;;;;1885570;76;20378;-72
2021/09/29 07:16:12;;;;;;;;;;;13.80;99.90;;;;;;1884564;76;20175;-72
2021/09/29 07:18:40;;;;;;;;;;;13.90;99.90;;;;;;1882630;76;20168;-72
2021/09/29 07:21:07;;;;;;;;;;;13.80;99.90;;;;;;1885343;75;20465;-72
2021/09/29 07:23:35;;;;;;;;;;;13.80;99.90;;;;;;1880479;75;20460;-72
2021/09/29 07:26:01;;;;;;;;;;;13.80;99.90;;;;;;1886779;76;20156;-72
2021/09/29 07:28:28;;;;;;;;;;;13.80;99.90;;;;;;1881778;76;20164;-72
2021/09/29 07:30:55;;;;;;;;;;;13.80;99.90;;;;;;1882481;76;20214;-72
2021/09/29 07:33:22;;;;;;;;;;;13.90;99.90;;;;;;1887496;76;20206;-71
2021/09/29 07:35:50;;;;;;;;;;;13.90;99.90;;;;;;1887175;76;20473;-72
2021/09/29 07:38:17;;;;;;;;;;;13.90;99.90;;;;;;1879294;75;20124;-71
2021/09/29 07:40:44;;;;;;;;;;;13.90;99.90;;;;;;1889004;74;20453;-71
2021/09/29 07:43:11;;;;;;;;;;;13.90;99.90;;;;;;1877287;76;20130;-72
2021/09/29 07:45:38;;;;;;;;;;;14.00;99.90;;;;;;1866915;75;20194;-72
2021/09/29 07:48:05;;;;;;;;;;;14.00;99.90;;;;;;1889096;76;20179;-73
2021/09/29 07:50:32;;;;;;;;;;;14.00;99.90;;;;;;1888325;76;20194;-72
2021/09/29 07:52:59;;;;;;;;;;;13.90;99.90;;;;;;1881495;76;20466;-73
2021/09/29 07:55:25;;;;;;;;;;;13.90;99.90;;;;;;1881277;76;20221;-72
2021/09/29 07:57:52;;;;;;;;;;;14.00;99.90;;;;;;1890682;76;20444;-72
2021/09/29 08:00:19;;;;;;;;;;;14.00;99.90;;;;;;1884587;75;20120;-72
2021/09/29 08:02:46;;;;;;;;;;;14.00;99.90;;;;;;1887477;76;20230;-73
2021/09/29 08:05:15;;;;;;;;;;;14.10;99.90;;;;;;1902036;74;20132;-72
2021/09/29 08:07:42;;;;;;;;;;;14.10;99.90;;;;;;1889935;76;20210;-72
2021/09/29 08:10:09;;;;;;;;;;;14.20;99.90;;;;;;1882635;74;20181;-72
2021/09/29 08:12:36;;;;;;;;;;;14.30;99.90;;;;;;1880113;76;20205;-72
2021/09/29 08:15:08;;;;;;;;;;;14.20;99.90;;;;;;1879990;76;20183;-72
2021/09/29 08:17:32;;;;;;;;;;;14.30;99.90;;;;;;1879608;75;20126;-72
2021/09/29 08:19:58;;;;;;;;;;;14.20;99.90;;;;;;1883706;75;20234;-72
2021/09/29 08:22:25;;;;;;;;;;;14.40;99.90;;;;;;1889686;75;20179;-73
2021/09/29 08:25:15;;;;;;;;;;;14.40;99.90;;;;;;1874424;76;20211;-72
2021/09/29 08:30:23;;;;;;;;;;;14.50;99.90;;;;;;1871128;76;20273;-73
2021/09/29 08:32:53;;;;;;;;;;;14.50;99.90;;;;;;1883351;76;20171;-73
2021/09/29 08:35:32;;;;;;;;;;;14.40;99.90;;;;;;1887383;76;20179;-73
2021/09/29 08:38:08;;;;;;;;;;;14.40;99.90;;;;;;1886104;75;20228;-73
2021/09/29 08:43:20;;;;;;;;;;;14.50;99.90;;;;;;1884784;76;20180;-73
2021/09/29 08:45:52;;;;;;;;;;;14.50;99.90;;;;;;1888408;76;20228;-74
2021/09/29 09:15:01;;;;;;;;;;;14.90;99.90;;;;;;1885390;76;20212;-73
2021/09/29 09:17:28;;;;;;;;;;;14.90;99.90;;;;;;1882261;76;20382;-73
2021/09/29 09:19:55;;;;;;;;;;;14.90;99.90;;;;;;1886331;75;20171;-73
2021/09/29 09:22:24;;;;;;;;;;;15.00;99.90;;;;;;1883725;76;20195;-73
2021/09/29 09:24:55;;;;;;;;;;;15.10;99.90;;;;;;1842996;78;20267;-73
2021/09/29 09:27:21;;;;;;;;;;;15.20;99.90;;;;;;1826263;78;20439;-73
2021/09/29 09:29:50;;;;;;;;;;;15.30;99.90;;;;;;1823957;78;20178;-73
2021/09/29 09:32:18;;;;;;;;;;;15.40;99.90;;;;;;1837775;77;20482;-73
2021/09/29 09:34:45;;;;;;;;;;;15.60;99.90;;;;;;1835116;78;20188;-73
2021/09/29 09:37:13;;;;;;;;;;;15.80;99.90;;;;;;1835184;78;20107;-73
2021/09/29 09:39:40;;;;;;;;;;;15.90;99.90;;;;;;1839657;78;20157;-73
2021/09/29 09:42:08;;;;;;;;;;;16.00;99.90;;;;;;1833073;78;20186;-73
2021/09/29 09:44:36;;;;;;;;;;;16.10;99.90;;;;;;1836570;77;20170;-73
2021/09/29 09:47:05;;;;;;;;;;;16.20;99.90;;;;;;1842492;78;20194;-72
2021/09/29 09:49:34;;;;;;;;;;;16.20;99.90;;;;;;1838603;78;20456;-72
2021/09/29 09:52:01;;;;;;;;;;;16.20;99.90;;;;;;1842765;77;20166;-72
2021/09/29 09:54:35;;;;;;;;;;;16.20;99.90;;;;;;1836315;78;20178;-73
2021/09/29 09:57:02;;;;;;;;;;;16.20;99.90;;;;;;1837880;78;20127;-73
2021/09/29 09:59:31;;;;;;;;;;;16.20;99.90;;;;;;1850188;76;20272;-73
2021/09/29 10:01:58;;;;;;;;;;;16.20;99.90;;;;;;1843857;77;20420;-73
2021/09/29 10:04:25;;;;;;;;;;;16.20;99.90;;;;;;1803038;79;20176;-73
2021/09/29 10:06:52;;;;;;;;;;;16.30;99.90;;;;;;1817327;79;20402;-74
2021/09/29 10:09:29;;;;;;;;;;;16.40;99.90;;;;;;1864781;75;20242;-73
2021/09/29 10:12:00;;;;;;;;;;;16.60;99.90;;;;;;1839939;76;20174;-73
2021/09/29 10:14:48;;;;;;;;;;;16.70;99.90;;;;;;1863696;76;20167;-73
2021/09/29 10:28:12;;;;;;;;;;;17.40;99.90;;;;;;1859707;77;20443;-73
2021/09/29 10:30:48;;;;;;;;;;;17.50;99.90;;;;;;1860976;76;20133;-73
2021/09/29 10:33:13;;;;;;;;;;;17.60;99.90;;;;;;1867535;76;20445;-73
2021/09/29 10:35:46;;;;;;;;;;;17.60;99.90;;;;;;1851385;76;20113;-73
2021/09/29 10:43:25;;;;;;;;;;;17.40;99.90;;;;;;1859557;77;20198;-73
2021/09/29 10:46:02;;;;;;;;;;;17.30;99.90;;;;;;1866970;76;20206;-73
2021/09/29 10:51:18;;;;;;;;;;;17.20;99.90;;;;;;1870167;76;20193;-73
2021/09/29 11:05:03;;;;;;;;;;;16.90;99.90;;;;;;1863466;75;20152;-71
2021/09/29 11:07:47;;;;;;;;;;;16.90;99.90;;;;;;1869183;76;20472;-71
2021/09/29 11:10:27;;;;;;;;;;;16.90;99.90;;;;;;1885648;75;20125;-72
2021/09/29 11:31:47;;;;;;;;;;;16.60;99.90;;;;;;1861736;76;20175;-72
2021/09/29 11:34:19;;;;;;;;;;;16.50;99.90;;;;;;1863564;76;20647;-72
2021/09/29 11:36:55;;;;;;;;;;;16.50;99.90;;;;;;1858716;76;20129;-74
2021/09/29 12:09:31;;;;;;;;;;;16.20;99.90;;;;;;1861613;77;20180;-72
2021/09/29 12:12:01;;;;;;;;;;;16.20;99.90;;;;;;1877024;75;20120;-73
2021/09/29 12:14:25;;;;;;;;;;;16.20;99.90;;;;;;1839260;77;20257;-72
2021/09/29 12:16:52;;;;;;;;;;;16.10;99.90;;;;;;1854451;77;20168;-73
2021/09/29 12:19:33;;;;;;;;;;;16.20;99.90;;;;;;1842427;77;20219;-72
2021/09/29 12:21:57;;;;;;;;;;;16.20;99.90;;;;;;1866634;76;20133;-73
2021/09/29 12:24:31;;;;;;;;;;;16.20;99.90;;;;;;1870884;76;20124;-72
2021/09/29 12:27:00;;;;;;;;;;;16.10;99.90;;;;;;1857330;77;20178;-73
2021/09/29 12:32:20;;;;;;;;;;;16.10;99.90;;;;;;1863692;76;20249;-73
2021/09/29 12:35:01;;;;;;;;;;;16.10;99.90;;;;;;1861669;75;20124;-72
2021/09/29 12:37:16;;;;;;;;;;;16.00;99.90;;;;;;1817453;78;20480;-72
2021/09/29 12:39:43;;;;;;;;;;;16.00;99.90;;;;;;1873573;76;20262;-72
2021/09/29 12:42:10;;;;;;;;;;;16.00;99.90;;;;;;1871392;76;20159;-72
2021/09/29 12:44:50;;;;;;;;;;;16.00;99.90;;;;;;1860199;75;20186;-72
2021/09/29 12:49:48;;;;;;;;;;;15.80;99.90;;;;;;1868941;76;20277;-72
2021/09/29 12:52:30;;;;;;;;;;;15.80;99.90;;;;;;1859957;77;20166;-72
2021/09/29 12:54:58;;;;;;;;;;;15.80;99.90;;;;;;1855842;76;20178;-72
2021/09/29 12:57:29;;;;;;;;;;;15.80;99.90;;;;;;1848644;77;20224;-72
2021/09/29 12:59:55;;;;;;;;;;;15.70;99.90;;;;;;1856935;77;20212;-72
2021/09/29 13:02:22;;;;;;;;;;;15.70;99.90;;;;;;1871276;77;20148;-72
2021/09/29 13:04:49;;;;;;;;;;;15.70;99.90;;;;;;1868035;75;20234;-72
2021/09/29 13:07:15;;;;;;;;;;;15.80;99.90;;;;;;1865753;77;20445;-72
2021/09/29 13:09:43;;;;;;;;;;;15.80;99.90;;;;;;1871741;76;20822;-72
2021/09/29 13:12:10;;;;;;;;;;;15.70;99.90;;;;;;1874407;76;20215;-72
2021/09/29 13:14:37;;;;;;;;;;;15.80;99.90;;;;;;1864496;76;20186;-72
2021/09/29 13:17:05;;;;;;;;;;;15.70;99.90;;;;;;1865942;76;20124;-72
2021/09/29 13:19:53;;;;;;;;;;;15.60;99.90;;;;;;1872880;76;20128;-72
2021/09/29 13:22:21;;;;;;;;;;;15.70;99.90;;;;;;1870316;76;20176;-72
2021/09/29 13:25:16;;;;;;;;;;;15.60;99.90;;;;;;1874786;76;20149;-72
2021/09/29 13:35:10;;;;;;;;;;;15.60;99.90;;;;;;1853571;76;20434;-72
2021/09/29 13:38:15;;;;;;;;;;;15.10;99.90;;;;;;1862579;75;20185;-72
2021/09/29 13:40:44;;;;;;;;;;;14.80;99.90;;;;;;1870428;76;20159;-73
2021/09/29 13:43:10;;;;;;;;;;;14.60;99.90;;;;;;1869157;76;20114;-73
2021/09/29 13:45:38;;;;;;;;;;;14.50;99.90;;;;;;1872570;76;20176;-73
2021/09/29 13:48:05;;;;;;;;;;;14.40;99.90;;;;;;1870927;77;20121;-73
2021/09/29 13:50:32;;;;;;;;;;;14.30;99.90;;;;;;1864316;75;20156;-73
2021/09/29 13:53:00;;;;;;;;;;;14.30;99.90;;;;;;1867834;75;20164;-73
2021/09/29 13:55:29;;;;;;;;;;;14.40;99.90;;;;;;1862572;75;20187;-73
2021/09/29 13:58:07;;;;;;;;;;;14.30;99.90;;;;;;1870623;76;20120;-71
2021/09/29 14:01:02;;;;;;;;;;;14.40;99.90;;;;;;1863572;75;20223;-71
2021/09/29 14:30:34;;;;;;;;;;;14.30;99.90;;;;;;1865786;75;20219;-72
2021/09/29 14:33:06;;;;;;;;;;;14.30;99.90;;;;;;1871772;75;20166;-73
2021/09/29 14:35:33;;;;;;;;;;;14.30;99.90;;;;;;1870758;76;20252;-73
2021/09/29 14:38:00;;;;;;;;;;;14.20;99.90;;;;;;1842491;77;20176;-73
2021/09/29 14:40:26;;;;;;;;;;;14.10;99.90;;;;;;1842740;75;20167;-73
2021/09/29 14:42:54;;;;;;;;;;;14.10;99.90;;;;;;1860923;77;20360;-73
2021/09/29 14:45:20;;;;;;;;;;;14.10;99.90;;;;;;1856813;75;20228;-72
2021/09/29 14:47:48;;;;;;;;;;;14.10;99.90;;;;;;1858008;76;20172;-72
2021/09/29 14:50:15;;;;;;;;;;;14.00;99.90;;;;;;1867896;76;20210;-73
2021/09/29 14:52:42;;;;;;;;;;;13.90;99.90;;;;;;1861837;76;20115;-72
2021/09/29 14:55:09;;;;;;;;;;;14.00;99.90;;;;;;1864420;77;20322;-73
2021/09/29 14:57:35;;;;;;;;;;;14.00;99.90;;;;;;1863548;77;20201;-73
2021/09/29 15:00:03;;;;;;;;;;;13.80;99.90;;;;;;1868187;75;20129;-73
2021/09/29 15:02:30;;;;;;;;;;;13.80;99.90;;;;;;1867544;76;20164;-73
2021/09/29 15:04:57;;;;;;;;;;;13.70;99.90;;;;;;1861135;76;20164;-73
2021/09/29 15:07:24;;;;;;;;;;;13.60;99.90;;;;;;1860189;75;20255;-72
2021/09/29 15:09:51;;;;;;;;;;;13.70;99.90;;;;;;1871755;75;20168;-70
2021/09/29 15:12:17;;;;;;;;;;;13.60;99.90;;;;;;1869854;76;20192;-72
2021/09/29 15:14:56;;;;;;;;;;;13.60;99.90;;;;;;1863038;75;20125;-71
2021/09/29 15:17:31;;;;;;;;;;;13.60;99.90;;;;;;1860723;76;20172;-73
2021/09/29 15:20:00;;;;;;;;;;;13.70;99.90;;;;;;1856743;76;20320;-72
2021/09/29 15:22:38;;;;;;;;;;;13.70;99.90;;;;;;1852073;76;20205;-74
2021/09/29 15:25:00;;;;;;;;;;;13.60;99.90;;;;;;1854668;76;20153;-74
2021/09/29 15:52:06;;;;;;;;;;;13.70;99.90;;;;;;1857207;75;20225;-72
2021/09/29 16:02:26;;;;;;;;;;;13.60;99.90;;;;;;1840890;77;20120;-72
2021/09/29 16:04:57;;;;;;;;;;;13.60;99.90;;;;;;1858516;75;20244;-71
2021/09/29 16:07:25;;;;;;;;;;;13.50;99.90;;;;;;1855187;76;20859;-72
2021/09/29 16:18:09;;;;;;;;;;;13.50;99.90;;;;;;1852393;77;20160;-72
2021/09/29 16:23:28;;;;;;;;;;;13.40;99.90;;;;;;1856640;75;20168;-73
2021/09/29 16:31:19;;;;;;;;;;;13.50;99.90;;;;;;1866533;75;20176;-72
2021/09/29 16:33:49;;;;;;;;;;;13.40;99.90;;;;;;1857282;76;20109;-74
2021/09/29 16:36:14;;;;;;;;;;;13.40;99.90;;;;;;1859119;75;21147;-74
2021/09/29 16:38:42;;;;;;;;;;;13.40;99.90;;;;;;1865092;75;20220;-74
2021/09/29 16:41:08;;;;;;;;;;;13.40;99.90;;;;;;1853697;77;20154;-71
2021/09/29 16:43:35;;;;;;;;;;;13.40;99.90;;;;;;1865381;75;20432;-72
2021/09/29 16:46:03;;;;;;;;;;;13.40;99.90;;;;;;1867227;75;20113;-71
2021/09/29 16:48:32;;;;;;;;;;;13.30;99.90;;;;;;1861465;76;20183;-72
2021/09/29 16:51:09;;;;;;;;;;;13.30;99.90;;;;;;1868228;75;20438;-72
2021/09/29 16:53:30;;;;;;;;;;;13.20;99.90;;;;;;1845999;76;20198;-73
2021/09/29 16:55:57;;;;;;;;;;;13.30;99.90;;;;;;1839377;76;20320;-73
2021/09/29 16:58:25;;;;;;;;;;;13.30;99.90;;;;;;1840138;78;20173;-73
2021/09/29 17:00:58;;;;;;;;;;;13.20;99.90;;;;;;1840085;77;20189;-73
2021/09/29 17:03:21;;;;;;;;;;;13.20;99.90;;;;;;1851981;75;20206;-73
2021/09/29 17:05:48;;;;;;;;;;;13.30;99.90;;;;;;1873205;76;20206;-73
2021/09/29 17:08:15;;;;;;;;;;;13.30;99.90;;;;;;1872630;75;20413;-72
2021/09/29 17:10:42;;;;;;;;;;;13.30;99.90;;;;;;1874729;75;20172;-72
2021/09/29 17:13:11;;;;;;;;;;;13.20;99.90;;;;;;1870246;77;20163;-72
2021/09/29 17:15:37;;;;;;;;;;;13.20;99.90;;;;;;1870841;76;20390;-72
2021/09/29 17:18:04;;;;;;;;;;;13.20;99.90;;;;;;1871310;77;20492;-72
2021/09/29 17:20:31;;;;;;;;;;;13.20;99.90;;;;;;1871038;77;20184;-72
2021/09/29 17:23:00;;;;;;;;;;;13.30;99.90;;;;;;1862912;77;20150;-72
2021/09/29 17:25:28;;;;;;;;;;;13.20;99.90;;;;;;1843854;77;20131;-72
2021/09/29 17:27:56;;;;;;;;;;;13.20;99.90;;;;;;1840012;77;20170;-73
2021/09/29 17:30:26;;;;;;;;;;;13.20;99.90;;;;;;1839979;78;20209;-72
2021/09/29 17:54:20;;;;;;;;;;;13.00;99.90;;;;;;1844167;77;20158;-72
2021/09/29 17:56:44;;;;;;;;;;;13.00;99.90;;;;;;1839632;78;20397;-72
2021/09/29 17:59:13;;;;;;;;;;;13.00;99.90;;;;;;1839946;78;20162;-73
2021/09/29 18:01:44;;;;;;;;;;;13.00;99.90;;;;;;1840521;77;20298;-72
2021/09/29 18:04:08;;;;;;;;;;;12.90;99.90;;;;;;1839422;77;20403;-73
2021/09/29 18:06:47;;;;;;;;;;;12.90;99.90;;;;;;1847281;75;20320;-73